createdAt,value
2023-05-14T00:00:02.714Z,82.8272
2023-05-14T00:01:03.787Z,82.5102
2023-05-14T00:02:04.922Z,82.3835
2023-05-14T00:03:06.239Z,82.8587
2023-05-14T00:04:07.612Z,82.3142
2023-05-14T00:05:09.681Z,82.1236
2023-05-14T00:06:10.793Z,82.0782
2023-05-14T00:07:11.897Z,82.3821
2023-05-14T00:08:12.893Z,82.5138
2023-05-14T00:09:14.057Z,81.9818
2023-05-14T00:10:15.084Z,80.5593
2023-05-14T00:11:16.155Z,79.6769
2023-05-14T00:12:17.226Z,81.2185
2023-05-14T00:13:18.293Z,79.9845
2023-05-14T00:14:19.423Z,81.4844
2023-05-14T00:15:20.467Z,81.6164
2023-05-14T00:16:21.579Z,81.3496
2023-05-14T00:17:22.688Z,81.8196
2023-05-14T00:18:23.795Z,80.3092
2023-05-14T00:19:24.875Z,81.7575
2023-05-14T00:20:26.048Z,82.1096
2023-05-14T00:21:27.140Z,80.7025
2023-05-14T00:22:28.272Z,81.2367
2023-05-14T00:23:29.391Z,80.9427
2023-05-14T00:24:30.542Z,81.0796
2023-05-14T00:25:31.660Z,81.8850
2023-05-14T00:26:32.684Z,81.6325
2023-05-14T00:27:33.748Z,81.8892
2023-05-14T00:28:34.886Z,81.6173
2023-05-14T00:29:35.992Z,81.9930
2023-05-14T00:30:37.124Z,82.2025
2023-05-14T00:31:38.142Z,82.2993
2023-05-14T00:32:39.340Z,82.2343
2023-05-14T00:33:40.332Z,82.7097
2023-05-14T00:34:41.492Z,82.3669
2023-05-14T00:35:42.557Z,81.6297
2023-05-14T00:36:43.562Z,80.8988
2023-05-14T00:37:44.542Z,81.5813
2023-05-14T00:38:45.687Z,81.1758
2023-05-14T00:39:46.697Z,81.9960
2023-05-14T00:40:47.880Z,81.9799
2023-05-14T00:41:48.878Z,81.2552
2023-05-14T00:42:49.986Z,81.6358
2023-05-14T00:43:51.053Z,82.2368
2023-05-14T00:44:52.100Z,82.0284
2023-05-14T00:45:53.339Z,81.9298
2023-05-14T00:46:54.493Z,82.0675
2023-05-14T00:47:55.461Z,82.7525
2023-05-14T00:48:56.532Z,82.5225
2023-05-14T00:49:57.743Z,82.1370
2023-05-14T00:50:58.723Z,82.0765
2023-05-14T00:51:59.856Z,82.4869
2023-05-14T00:53:00.886Z,83.0613
2023-05-14T00:54:02.031Z,83.2691
2023-05-14T00:55:03.055Z,83.6127
2023-05-14T00:56:04.111Z,83.0143
2023-05-14T00:57:05.243Z,83.1517
2023-05-14T00:58:06.300Z,83.3264
2023-05-14T00:59:07.397Z,83.5793
2023-05-14T01:00:08.473Z,83.2280
2023-05-14T01:01:09.716Z,83.1057
2023-05-14T01:02:10.705Z,82.6068
2023-05-14T01:03:12.010Z,83.4919
2023-05-14T01:04:13.181Z,83.7480
2023-05-14T01:05:14.310Z,84.2532
2023-05-14T01:06:15.469Z,83.8353
2023-05-14T01:07:16.491Z,84.2566
2023-05-14T01:08:17.628Z,84.2265
2023-05-14T01:09:18.724Z,83.6064
2023-05-14T01:10:19.809Z,83.3500
2023-05-14T01:11:20.953Z,83.7725
2023-05-14T01:12:21.960Z,84.0172
2023-05-14T01:13:23.144Z,84.0148
2023-05-14T01:14:24.117Z,84.4993
2023-05-14T01:15:25.238Z,84.6627
2023-05-14T01:16:26.365Z,84.3433
2023-05-14T01:17:28.408Z,84.0141
2023-05-14T01:18:29.488Z,84.0118
2023-05-14T01:19:30.553Z,83.7820
2023-05-14T01:20:31.681Z,83.7483
2023-05-14T01:21:32.713Z,83.6670
2023-05-14T01:22:34.840Z,84.1678
2023-05-14T01:23:35.976Z,84.2447
2023-05-14T01:24:36.978Z,84.0919
2023-05-14T01:25:38.074Z,82.8011
2023-05-14T01:26:39.109Z,81.8957
2023-05-14T01:27:40.245Z,82.6566
2023-05-14T01:28:41.303Z,81.6632
2023-05-14T01:29:43.399Z,82.9495
2023-05-14T01:30:44.509Z,83.3578
2023-05-14T01:31:45.592Z,83.2093
2023-05-14T01:32:46.707Z,83.3342
2023-05-14T01:33:48.832Z,83.6135
2023-05-14T01:34:49.851Z,83.4523
2023-05-14T01:35:50.988Z,83.6695
2023-05-14T01:36:52.028Z,83.0634
2023-05-14T01:37:53.168Z,83.1256
2023-05-14T01:38:54.230Z,81.9214
2023-05-14T01:39:55.321Z,83.1714
2023-05-14T01:40:56.362Z,83.5780
2023-05-14T01:41:57.524Z,83.6211
2023-05-14T01:42:58.623Z,83.1323
2023-05-14T01:43:59.728Z,82.9251
2023-05-14T01:45:00.858Z,82.3801
2023-05-14T01:46:01.965Z,82.1585
2023-05-14T01:47:03.041Z,81.0716
2023-05-14T01:48:04.241Z,81.7443
2023-05-14T01:49:06.256Z,81.9160
2023-05-14T01:50:07.461Z,81.3932
2023-05-14T01:51:08.440Z,82.4737
2023-05-14T01:52:09.581Z,81.7956
2023-05-14T01:53:10.598Z,81.0610
2023-05-14T01:54:11.762Z,81.8847
2023-05-14T01:55:12.747Z,81.8586
2023-05-14T01:56:13.913Z,82.1304
2023-05-14T01:57:14.938Z,79.9050
2023-05-14T01:58:16.043Z,79.7369
2023-05-14T01:59:17.072Z,80.1319
2023-05-14T02:00:18.201Z,79.9189
2023-05-14T02:01:19.313Z,80.9756
2023-05-14T02:02:20.426Z,81.3753
2023-05-14T02:03:21.500Z,81.6362
2023-05-14T02:04:22.765Z,80.3557
2023-05-14T02:05:23.825Z,81.6610
2023-05-14T02:06:24.921Z,81.5952
2023-05-14T02:07:25.983Z,81.3837
2023-05-14T02:08:27.117Z,80.5738
2023-05-14T02:09:28.117Z,81.3605
2023-05-14T02:10:29.290Z,80.1777
2023-05-14T02:11:30.381Z,80.4265
2023-05-14T02:12:31.483Z,78.5522
2023-05-14T02:13:32.568Z,78.8272
2023-05-14T02:14:33.635Z,80.6450
2023-05-14T02:15:34.662Z,81.5160
2023-05-14T02:16:35.770Z,79.5891
2023-05-14T02:17:36.963Z,81.0470
2023-05-14T02:18:38.142Z,80.5928
2023-05-14T02:19:39.162Z,78.7176
2023-05-14T02:20:40.267Z,78.8487
2023-05-14T02:21:41.299Z,80.2786
2023-05-14T02:22:42.464Z,79.4782
2023-05-14T02:23:43.468Z,80.7608
2023-05-14T02:24:44.503Z,78.5284
2023-05-14T02:25:45.644Z,79.6839
2023-05-14T02:26:46.757Z,80.7875
2023-05-14T02:27:47.844Z,80.8688
2023-05-14T02:28:48.959Z,78.9720
2023-05-14T02:29:49.977Z,77.6707
2023-05-14T02:30:51.210Z,78.5260
2023-05-14T02:31:53.281Z,80.5484
2023-05-14T02:32:54.495Z,78.7534
2023-05-14T02:33:55.501Z,78.4524
2023-05-14T02:34:56.554Z,78.4682
2023-05-14T02:35:57.680Z,79.1732
2023-05-14T02:36:58.789Z,80.2062
2023-05-14T02:37:59.762Z,80.6096
2023-05-14T02:39:00.831Z,79.7549
2023-05-14T02:40:01.862Z,81.3804
2023-05-14T02:41:02.916Z,81.9062
2023-05-14T02:42:03.996Z,81.2258
2023-05-14T02:43:05.125Z,80.5741
2023-05-14T02:44:06.227Z,78.9337
2023-05-14T02:45:07.356Z,78.4258
2023-05-14T02:46:08.382Z,78.6853
2023-05-14T02:47:09.657Z,77.8720
2023-05-14T02:48:10.857Z,76.5935
2023-05-14T02:49:11.905Z,76.4059
2023-05-14T02:50:12.982Z,75.6078
2023-05-14T02:51:14.004Z,78.8245
2023-05-14T02:52:15.098Z,80.5542
2023-05-14T02:53:16.129Z,81.2860
2023-05-14T02:54:17.228Z,81.6948
2023-05-14T02:55:18.342Z,82.4082
2023-05-14T02:56:19.477Z,80.8058
2023-05-14T02:57:20.595Z,81.4546
2023-05-14T02:58:26.018Z,82.7171
2023-05-14T02:59:22.102Z,82.2693
2023-05-14T03:00:23.750Z,82.6945
2023-05-14T03:01:25.536Z,83.0694
2023-05-14T03:02:27.941Z,83.5806
2023-05-14T03:03:29.359Z,83.5625
2023-05-14T03:04:30.920Z,83.6052
2023-05-14T03:05:32.063Z,83.9792
2023-05-14T03:06:33.095Z,84.0415
2023-05-14T03:07:34.189Z,84.0994
2023-05-14T03:08:35.408Z,83.7313
2023-05-14T03:09:38.301Z,83.8511
2023-05-14T03:10:39.522Z,83.8708
2023-05-14T03:11:40.633Z,84.0036
2023-05-14T03:12:41.799Z,84.0304
2023-05-14T03:13:42.909Z,83.5088
2023-05-14T03:14:43.986Z,84.0397
2023-05-14T03:15:45.075Z,83.6167
2023-05-14T03:16:46.197Z,83.1710
2023-05-14T03:17:48.342Z,82.4917
2023-05-14T03:18:49.359Z,82.8336
2023-05-14T03:19:50.487Z,81.8939
2023-05-14T03:20:51.621Z,82.6286
2023-05-14T03:21:52.681Z,82.4996
2023-05-14T03:22:54.111Z,81.3889
2023-05-14T03:23:55.301Z,81.7358
2023-05-14T03:24:56.373Z,80.8421
2023-05-14T03:25:57.474Z,80.5413
2023-05-14T03:26:58.544Z,81.4321
2023-05-14T03:27:59.681Z,79.6890
2023-05-14T03:29:00.673Z,79.6820
2023-05-14T03:30:02.104Z,79.1353
2023-05-14T03:31:03.119Z,78.6278
2023-05-14T03:42:43.676Z,77.5586
2023-05-14T03:42:43.676Z,80.3326
2023-05-14T03:42:43.676Z,77.7805
2023-05-14T03:42:54.766Z,77.0474
2023-05-14T03:43:55.862Z,78.5199
2023-05-14T03:44:56.931Z,77.7735
2023-05-14T03:45:58.033Z,78.6996
2023-05-14T03:46:59.031Z,78.3089
2023-05-14T03:48:00.309Z,76.9518
2023-05-14T03:49:01.422Z,75.8822
2023-05-14T03:50:02.602Z,76.8112
2023-05-14T03:51:03.643Z,76.2073
2023-05-14T03:52:04.775Z,76.1936
2023-05-14T03:53:05.908Z,75.6679
2023-05-14T03:54:07.016Z,76.4350
2023-05-14T03:55:08.098Z,78.0156
2023-05-14T03:56:09.099Z,75.6829
2023-05-14T03:57:10.183Z,74.9472
2023-05-14T03:58:11.290Z,76.3858
2023-05-14T03:59:12.357Z,76.1883
2023-05-14T04:00:13.869Z,78.9150
2023-05-14T04:01:14.923Z,79.8132
2023-05-14T04:02:16.113Z,79.5405
2023-05-14T04:03:19.809Z,79.9990
2023-05-14T04:04:19.211Z,80.2090
2023-05-14T04:05:20.575Z,78.1769
2023-05-14T04:06:22.752Z,79.6677
2023-05-14T04:07:24.216Z,78.7340
2023-05-14T04:08:26.279Z,80.4999
2023-05-14T04:09:27.761Z,78.7208
2023-05-14T04:11:33.934Z,81.1096
2023-05-14T04:12:34.586Z,79.3996
2023-05-14T04:13:36.602Z,77.8284
2023-05-14T04:14:38.807Z,78.0687
2023-05-14T04:15:40.497Z,80.8418
2023-05-14T04:16:42.097Z,80.4683
2023-05-14T04:17:44.520Z,78.9515
2023-05-14T04:18:46.450Z,79.3790
2023-05-14T04:19:47.977Z,78.2773
2023-05-14T04:20:49.712Z,77.7751
2023-05-14T04:21:52.041Z,77.6778
2023-05-14T04:22:53.410Z,78.6262
2023-05-14T04:23:54.652Z,77.1624
2023-05-14T04:24:55.893Z,79.1628
2023-05-14T04:25:57.013Z,80.8936
2023-05-14T04:26:58.489Z,80.0530
2023-05-14T04:28:00.121Z,79.3844
2023-05-14T04:29:01.304Z,79.0943
2023-05-14T04:30:02.649Z,79.7595
2023-05-14T04:31:03.900Z,81.1039
2023-05-14T04:32:05.218Z,79.4227
2023-05-14T04:33:07.356Z,79.4400
2023-05-14T04:34:08.464Z,78.2151
2023-05-14T04:35:09.696Z,77.3058
2023-05-14T04:36:11.067Z,78.5726
2023-05-14T04:37:12.272Z,78.6671
2023-05-14T04:38:13.445Z,76.9812
2023-05-14T04:39:14.607Z,76.8756
2023-05-14T04:40:15.805Z,78.5612
2023-05-14T04:41:16.947Z,77.3053
2023-05-14T04:42:18.165Z,76.9707
2023-05-14T04:43:19.401Z,78.8934
2023-05-14T04:44:20.565Z,77.9453
2023-05-14T04:45:21.729Z,77.7050
2023-05-14T04:46:22.987Z,78.8040
2023-05-14T04:47:24.163Z,80.6096
2023-05-14T04:48:25.438Z,80.9208
2023-05-14T04:49:26.665Z,81.8417
2023-05-14T04:50:27.992Z,81.9715
2023-05-14T04:51:29.149Z,81.6647
2023-05-14T04:52:30.594Z,82.0947
2023-05-14T04:53:31.720Z,81.1529
2023-05-14T04:54:33.059Z,79.9830
2023-05-14T04:55:35.312Z,80.9600
2023-05-14T04:56:36.522Z,79.5348
2023-05-14T04:57:37.836Z,79.5788
2023-05-14T04:58:39.024Z,80.4310
2023-05-14T04:59:40.165Z,79.0727
2023-05-14T05:00:41.334Z,77.7462
2023-05-14T05:01:42.631Z,76.9662
2023-05-14T05:02:44.868Z,77.3049
2023-05-14T05:03:46.185Z,77.4988
2023-05-14T05:04:47.505Z,76.6539
2023-05-14T05:05:48.736Z,78.1834
2023-05-14T05:06:49.865Z,78.5107
2023-05-14T05:07:51.100Z,76.7325
2023-05-14T05:08:52.349Z,76.2204
2023-05-14T05:09:53.847Z,76.0393
2023-05-14T05:10:55.235Z,75.2853
2023-05-14T05:11:56.427Z,75.2237
2023-05-14T05:12:57.629Z,76.0165
2023-05-14T05:13:58.755Z,77.4018
2023-05-14T05:14:59.968Z,76.4034
2023-05-14T05:16:01.232Z,76.8504
2023-05-14T05:17:02.592Z,76.0711
2023-05-14T05:18:04.004Z,78.1888
2023-05-14T05:19:06.329Z,75.9693
2023-05-14T05:20:08.085Z,75.4019
2023-05-14T05:21:09.171Z,75.7715
2023-05-14T05:22:10.358Z,76.9241
2023-05-14T05:23:11.526Z,79.9937
2023-05-14T05:24:12.754Z,80.7160
2023-05-14T05:25:14.484Z,80.6962
2023-05-14T05:26:15.608Z,79.8880
2023-05-14T05:27:16.965Z,80.4256
2023-05-14T05:28:18.299Z,80.8577
2023-05-14T05:29:19.805Z,77.7213
2023-05-14T05:30:20.920Z,78.7878
2023-05-14T05:31:22.183Z,78.6062
2023-05-14T05:32:23.488Z,80.5415
2023-05-14T05:33:24.696Z,79.9490
2023-05-14T05:34:25.908Z,80.6471
2023-05-14T05:35:26.984Z,81.6746
2023-05-14T05:36:28.356Z,79.4658
2023-05-14T05:37:29.622Z,78.8335
2023-05-14T05:38:31.005Z,79.5036
2023-05-14T05:39:32.421Z,79.4007
2023-05-14T05:40:33.603Z,77.7317
2023-05-14T05:41:34.781Z,76.4874
2023-05-14T05:42:36.032Z,76.6973
2023-05-14T05:43:37.318Z,76.6879
2023-05-14T05:44:38.613Z,77.5246
2023-05-14T05:45:39.771Z,78.2535
2023-05-14T05:46:41.018Z,77.9776
2023-05-14T05:47:42.287Z,78.6127
2023-05-14T05:48:43.473Z,78.8192
2023-05-14T05:49:44.923Z,76.6812
2023-05-14T05:50:46.166Z,76.6597
2023-05-14T05:51:47.303Z,76.3761
2023-05-14T05:52:48.481Z,76.9481
2023-05-14T05:53:49.773Z,77.7384
2023-05-14T05:54:51.020Z,77.0485
2023-05-14T05:55:52.190Z,77.3308
2023-05-14T05:56:53.286Z,78.4145
2023-05-14T05:57:54.578Z,77.1700
2023-05-14T05:58:55.942Z,75.7484
2023-05-14T05:59:57.105Z,75.6104
2023-05-14T06:00:58.425Z,76.9133
2023-05-14T06:01:59.691Z,75.7785
2023-05-14T06:03:01.049Z,76.1822
2023-05-14T06:04:02.236Z,74.5573
2023-05-14T06:05:03.365Z,75.8996
2023-05-14T06:06:04.437Z,74.6215
2023-05-14T06:07:05.512Z,74.7073
2023-05-14T06:08:06.734Z,74.7984
2023-05-14T06:09:07.940Z,74.1462
2023-05-14T06:10:09.197Z,74.6258
2023-05-14T06:11:10.311Z,74.5788
2023-05-14T06:12:11.541Z,74.7279
2023-05-14T06:13:12.793Z,76.3583
2023-05-14T06:14:14.086Z,76.5159
2023-05-14T06:15:15.433Z,78.3736
2023-05-14T06:16:16.799Z,78.4172
2023-05-14T06:17:17.899Z,76.9829
2023-05-14T06:18:20.065Z,79.3759
2023-05-14T06:19:21.484Z,79.2253
2023-05-14T06:20:22.942Z,79.6505
2023-05-14T06:21:25.151Z,78.9783
2023-05-14T06:22:26.651Z,79.8015
2023-05-14T06:23:27.962Z,80.0820
2023-05-14T06:24:29.087Z,80.8391
2023-05-14T06:25:30.375Z,77.9984
2023-05-14T06:26:31.438Z,78.6662
2023-05-14T06:27:33.982Z,80.2927
2023-05-14T06:28:35.265Z,79.0569
2023-05-14T06:29:36.541Z,78.3439
2023-05-14T06:30:38.319Z,80.2591
2023-05-14T06:31:39.669Z,80.4328
2023-05-14T06:32:41.028Z,79.1819
2023-05-14T06:33:43.388Z,77.8876
2023-05-14T06:34:44.685Z,79.8319
2023-05-14T06:35:45.946Z,80.1418
2023-05-14T06:36:47.372Z,78.8958
2023-05-14T06:37:48.540Z,80.0429
2023-05-14T06:38:49.672Z,79.9197
2023-05-14T06:39:50.816Z,79.4811
2023-05-14T06:40:52.096Z,80.0996
2023-05-14T06:41:53.328Z,78.1359
2023-05-14T06:42:54.548Z,79.1092
2023-05-14T06:43:55.842Z,78.5940
2023-05-14T06:44:57.131Z,78.3310
2023-05-14T06:45:58.553Z,77.6600
2023-05-14T06:46:59.860Z,79.2853
2023-05-14T06:48:01.571Z,76.6950
2023-05-14T06:49:03.798Z,79.5082
2023-05-14T06:50:04.906Z,78.1850
2023-05-14T06:51:06.171Z,78.5756
2023-05-14T06:52:07.441Z,76.8858
2023-05-14T06:53:08.594Z,79.9128
2023-05-14T06:54:10.028Z,80.5178
2023-05-14T06:55:11.401Z,81.2417
2023-05-14T06:56:12.469Z,79.7186
2023-05-14T06:57:14.823Z,78.7809
2023-05-14T06:58:16.234Z,77.9351
2023-05-14T06:59:18.570Z,78.9052
2023-05-14T07:00:19.850Z,79.2732
2023-05-14T07:01:21.208Z,80.8872
2023-05-14T07:02:23.435Z,81.3817
2023-05-14T07:03:24.750Z,81.9387
2023-05-14T07:04:25.959Z,82.2149
2023-05-14T07:05:28.232Z,82.1871
2023-05-14T07:06:30.543Z,82.7035
2023-05-14T07:07:31.837Z,83.1422
2023-05-14T07:08:33.031Z,80.3595
2023-05-14T07:09:34.267Z,79.2346
2023-05-14T07:10:35.650Z,78.7044
2023-05-14T07:11:36.800Z,81.9003
2023-05-14T07:12:37.958Z,79.4180
2023-05-14T07:13:39.144Z,78.7332
2023-05-14T07:14:40.450Z,78.7658
2023-05-14T07:16:54.973Z,80.6173
2023-05-14T07:17:05.416Z,80.2587
2023-05-14T07:18:06.960Z,78.4009
2023-05-14T07:19:09.213Z,77.4254
2023-05-14T07:20:11.363Z,77.5438
2023-05-14T07:21:12.959Z,79.0968
2023-05-14T07:22:14.507Z,77.9057
2023-05-14T07:23:16.977Z,78.3295
2023-05-14T07:24:17.237Z,80.1127
2023-05-14T07:25:19.405Z,81.4907
2023-05-14T07:26:21.285Z,78.2088
2023-05-14T07:27:23.947Z,80.7535
2023-05-14T07:28:26.409Z,81.6570
2023-05-14T07:29:28.815Z,80.7832
2023-05-14T07:30:28.227Z,82.8451
2023-05-14T07:31:29.797Z,83.7790
2023-05-14T07:32:32.215Z,80.4406
2023-05-14T07:33:33.651Z,79.3223
2023-05-14T07:34:34.978Z,79.7409
2023-05-14T07:35:36.570Z,82.2001
2023-05-14T07:36:38.564Z,83.2117
2023-05-14T07:37:40.542Z,84.4411
2023-05-14T07:38:43.278Z,84.2753
2023-05-14T07:39:41.935Z,82.7125
2023-05-14T07:40:43.546Z,83.3739
2023-05-14T07:41:45.250Z,84.6064
2023-05-14T07:42:46.716Z,84.4149
2023-05-14T07:43:48.045Z,84.1764
2023-05-14T07:44:50.149Z,84.7005
2023-05-14T07:45:51.563Z,85.1381
2023-05-14T07:46:52.925Z,83.0807
2023-05-14T07:47:54.440Z,83.6516
2023-05-14T07:48:55.812Z,84.3868
2023-05-14T07:49:57.552Z,84.1271
2023-05-14T07:50:59.985Z,83.4887
2023-05-14T07:52:01.515Z,82.5312
2023-05-14T07:53:03.381Z,84.5168
2023-05-14T07:54:03.241Z,83.9604
2023-05-14T07:55:04.845Z,81.9247
2023-05-14T07:56:06.315Z,82.9073
2023-05-14T07:57:07.581Z,82.4285
2023-05-14T07:58:09.003Z,83.6985
2023-05-14T07:59:10.576Z,82.7526
2023-05-14T08:00:11.904Z,82.4876
2023-05-14T08:01:14.084Z,81.9292
2023-05-14T08:02:16.439Z,80.9481
2023-05-14T08:03:19.361Z,80.5995
2023-05-14T08:04:19.533Z,81.9855
2023-05-14T08:05:21.269Z,81.1158
2023-05-14T08:06:22.767Z,81.3777
2023-05-14T08:07:26.556Z,80.1955
2023-05-14T08:08:28.600Z,78.7299
2023-05-14T08:09:30.089Z,79.3289
2023-05-14T08:10:31.960Z,79.7700
2023-05-14T08:11:35.101Z,77.9696
2023-05-14T08:12:36.212Z,77.2720
2023-05-14T08:13:38.195Z,77.1745
2023-05-14T08:14:39.432Z,77.3003
2023-05-14T08:15:40.753Z,76.2389
2023-05-14T08:16:42.301Z,76.5825
2023-05-14T08:17:44.366Z,77.2070
2023-05-14T08:18:45.956Z,75.7705
2023-05-14T08:19:47.462Z,77.7285
2023-05-14T08:20:49.003Z,76.3531
2023-05-14T08:21:50.135Z,79.1720
2023-05-14T08:22:51.467Z,78.7189
2023-05-14T08:23:52.573Z,76.3485
2023-05-14T08:24:53.739Z,78.6581
2023-05-14T08:26:04.512Z,77.4500
2023-05-14T08:26:56.273Z,76.3287
2023-05-14T08:27:57.366Z,76.4593
2023-05-14T08:28:58.590Z,77.7255
2023-05-14T08:30:01.040Z,77.3526
2023-05-14T08:31:02.250Z,75.2307
2023-05-14T08:32:08.744Z,78.0951
2023-05-14T08:33:03.959Z,78.7349
2023-05-14T08:34:05.031Z,77.7305
2023-05-14T08:35:06.088Z,75.8208
2023-05-14T08:36:07.178Z,77.9419
2023-05-14T08:37:08.424Z,78.2994
2023-05-14T08:38:09.536Z,78.5378
2023-05-14T08:39:10.801Z,79.4870
2023-05-14T08:40:11.854Z,78.5505
2023-05-14T08:41:12.913Z,78.0352
2023-05-14T08:42:14.058Z,76.9296
2023-05-14T08:43:15.058Z,77.3410
2023-05-14T08:44:16.126Z,76.6980
2023-05-14T08:45:17.152Z,76.3127
2023-05-14T08:46:18.299Z,77.3244
2023-05-14T08:47:19.308Z,79.2131
2023-05-14T08:48:20.528Z,77.2012
2023-05-14T08:49:22.780Z,76.5248
2023-05-14T08:50:23.974Z,75.4204
2023-05-14T08:51:24.996Z,74.8561
2023-05-14T08:52:26.050Z,75.4210
2023-05-14T08:53:27.224Z,74.6479
2023-05-14T08:54:28.334Z,74.7040
2023-05-14T08:55:29.434Z,74.5155
2023-05-14T08:56:30.500Z,76.0872
2023-05-14T08:57:31.825Z,75.7159
2023-05-14T08:58:32.843Z,73.9648
2023-05-14T08:59:33.938Z,73.0885
2023-05-14T09:00:35.012Z,74.4846
2023-05-14T09:01:36.089Z,73.2992
2023-05-14T09:02:37.150Z,72.0545
2023-05-14T09:03:38.517Z,74.2800
2023-05-14T09:04:40.654Z,72.5034
2023-05-14T09:05:41.726Z,74.9927
2023-05-14T09:06:43.025Z,73.9420
2023-05-14T09:07:44.104Z,75.0352
2023-05-14T09:08:45.217Z,72.7809
2023-05-14T09:09:46.317Z,73.7291
2023-05-14T09:10:47.421Z,73.8435
2023-05-14T09:11:48.535Z,73.9421
2023-05-14T09:12:49.598Z,73.3911
2023-05-14T09:13:50.734Z,72.6763
2023-05-14T09:14:51.944Z,73.8573
2023-05-14T09:15:53.048Z,71.7958
2023-05-14T09:16:54.206Z,69.7980
2023-05-14T09:17:55.396Z,70.4017
2023-05-14T09:18:56.559Z,71.0299
2023-05-14T09:19:57.663Z,71.8919
2023-05-14T09:20:58.777Z,72.9596
2023-05-14T09:21:59.858Z,73.3103
2023-05-14T09:23:00.934Z,69.6029
2023-05-14T09:24:02.042Z,71.1411
2023-05-14T09:25:03.120Z,72.3444
2023-05-14T09:26:04.171Z,71.6099
2023-05-14T09:27:05.325Z,72.1529
2023-05-14T09:28:06.403Z,70.8777
2023-05-14T09:29:07.482Z,70.3258
2023-05-14T09:30:08.572Z,71.0546
2023-05-14T09:31:09.814Z,71.8480
2023-05-14T09:32:10.872Z,72.8125
2023-05-14T09:33:12.009Z,71.8489
2023-05-14T09:34:13.107Z,70.4764
2023-05-14T09:35:14.165Z,70.8783
2023-05-14T09:36:15.429Z,71.1365
2023-05-14T09:37:16.492Z,71.2530
2023-05-14T09:38:17.554Z,71.0484
2023-05-14T09:39:18.779Z,69.9755
2023-05-14T09:40:19.821Z,71.4634
2023-05-14T09:41:20.878Z,71.6262
2023-05-14T09:42:21.961Z,71.1045
2023-05-14T09:43:23.326Z,71.0558
2023-05-14T09:44:24.355Z,71.0002
2023-05-14T09:45:25.443Z,71.1866
2023-05-14T09:46:26.508Z,71.5432
2023-05-14T09:47:27.723Z,71.9510
2023-05-14T09:48:28.995Z,70.8216
2023-05-14T09:49:30.050Z,69.9568
2023-05-14T09:50:31.141Z,70.2430
2023-05-14T09:51:32.151Z,71.7254
2023-05-14T09:52:33.292Z,71.1557
2023-05-14T09:53:34.328Z,69.4957
2023-05-14T09:54:35.593Z,71.3959
2023-05-14T09:55:36.622Z,72.2678
2023-05-14T09:56:37.627Z,71.7424
2023-05-14T09:57:38.775Z,72.4080
2023-05-14T09:58:39.866Z,71.1574
2023-05-14T09:59:40.894Z,71.8712
2023-05-14T10:00:41.952Z,71.3314
2023-05-14T10:01:43.310Z,71.4780
2023-05-14T10:02:44.474Z,72.6657
2023-05-14T10:03:46.519Z,70.6294
2023-05-14T10:04:47.648Z,71.1190
2023-05-14T10:05:48.739Z,71.5020
2023-05-14T10:06:49.836Z,71.2387
2023-05-14T10:07:50.872Z,72.4634
2023-05-14T10:08:51.947Z,72.4569
2023-05-14T10:09:53.230Z,72.0283
2023-05-14T10:10:54.355Z,72.9569
2023-05-14T10:11:55.468Z,72.6648
2023-05-14T10:12:56.523Z,70.9056
2023-05-14T10:13:57.596Z,71.1897
2023-05-14T10:14:58.820Z,72.0646
2023-05-14T10:15:59.872Z,72.5707
2023-05-14T10:17:00.989Z,72.9301
2023-05-14T10:18:02.052Z,71.9064
2023-05-14T10:19:04.146Z,72.4267
2023-05-14T10:20:05.327Z,73.4210
2023-05-14T10:21:07.435Z,72.4624
2023-05-14T10:22:08.451Z,72.6056
2023-05-14T10:23:09.541Z,71.2558
2023-05-14T10:24:10.582Z,71.6610
2023-05-14T10:25:11.658Z,72.7884
2023-05-14T10:26:12.889Z,70.9822
2023-05-14T10:27:14.021Z,70.1515
2023-05-14T10:28:15.070Z,69.3935
2023-05-14T10:29:16.292Z,68.8312
2023-05-14T10:30:17.295Z,67.7185
2023-05-14T10:31:18.539Z,69.9924
2023-05-14T10:32:19.571Z,69.7409
2023-05-14T10:33:20.634Z,69.7226
2023-05-14T10:34:21.668Z,68.6774
2023-05-14T10:35:22.764Z,70.0002
2023-05-14T10:36:23.841Z,70.2796
2023-05-14T10:37:25.078Z,68.6622
2023-05-14T10:38:26.143Z,69.1509
2023-05-14T10:39:27.206Z,69.4826
2023-05-14T10:40:28.266Z,67.4272
2023-05-14T10:41:29.429Z,67.3561
2023-05-14T10:42:30.550Z,69.8105
2023-05-14T10:43:31.675Z,70.1628
2023-05-14T10:44:32.744Z,71.9067
2023-05-14T10:45:33.825Z,72.3795
2023-05-14T10:46:35.145Z,73.0103
2023-05-14T10:47:37.287Z,71.4620
2023-05-14T10:48:39.274Z,74.1113
2023-05-14T10:49:43.831Z,72.8971
2023-05-14T10:50:41.901Z,71.4117
2023-05-14T10:51:43.093Z,74.3911
2023-05-14T10:52:45.079Z,74.1196
2023-05-14T10:53:46.139Z,71.0430
2023-05-14T10:54:47.278Z,68.2478
2023-05-14T10:55:48.429Z,69.6910
2023-05-14T10:56:49.554Z,69.9171
2023-05-14T10:57:50.758Z,70.4434
2023-05-14T10:58:51.872Z,69.8120
2023-05-14T10:59:52.931Z,67.0698
2023-05-14T11:00:54.072Z,68.0861
2023-05-14T11:01:55.208Z,69.1923
2023-05-14T11:02:56.665Z,70.9619
2023-05-14T11:03:57.823Z,71.1857
2023-05-14T11:04:58.932Z,69.1262
2023-05-14T11:06:00.045Z,68.0747
2023-05-14T11:07:01.095Z,68.1013
2023-05-14T11:08:02.167Z,67.6171
2023-05-14T11:09:03.239Z,69.6382
2023-05-14T11:10:04.281Z,69.4787
2023-05-14T11:11:05.396Z,68.9024
2023-05-14T11:12:06.452Z,69.7778
2023-05-14T11:13:07.560Z,71.2020
2023-05-14T11:14:10.144Z,69.7164
2023-05-14T11:15:11.449Z,68.4710
2023-05-14T11:16:22.825Z,69.1810
2023-05-14T11:17:13.362Z,68.1873
2023-05-14T11:18:15.535Z,67.7606
2023-05-14T11:19:16.733Z,68.4143
2023-05-14T11:20:17.981Z,68.6970
2023-05-14T11:21:19.114Z,66.7719
2023-05-14T11:22:20.280Z,66.3329
2023-05-14T11:23:21.354Z,66.4317
2023-05-14T11:24:22.375Z,64.5358
2023-05-14T11:25:23.638Z,63.3984
2023-05-14T11:26:24.853Z,63.6285
2023-05-14T11:27:26.128Z,64.4297
2023-05-14T11:28:27.319Z,65.3840
2023-05-14T11:29:28.457Z,66.3598
2023-05-14T11:30:29.929Z,68.0330
2023-05-14T11:31:31.279Z,64.8342
2023-05-14T11:32:33.475Z,61.6375
2023-05-14T11:33:35.656Z,66.0465
2023-05-14T11:34:36.939Z,65.4090
2023-05-14T11:35:38.044Z,62.8286
2023-05-14T11:36:39.117Z,63.9963
2023-05-14T11:37:40.371Z,66.0449
2023-05-14T11:38:41.455Z,66.1371
2023-05-14T11:39:42.606Z,66.2848
2023-05-14T11:40:44.003Z,66.2761
2023-05-14T11:41:45.065Z,64.7240
2023-05-14T11:42:46.204Z,66.3117
2023-05-14T11:43:47.283Z,66.0791
2023-05-14T11:44:48.450Z,65.7760
2023-05-14T11:45:49.724Z,67.4007
2023-05-14T11:46:50.856Z,67.8494
2023-05-14T11:47:51.976Z,69.2510
2023-05-14T11:48:54.088Z,71.0146
2023-05-14T11:49:55.190Z,69.2521
2023-05-14T11:50:56.262Z,72.0750
2023-05-14T11:51:57.418Z,73.7768
2023-05-14T11:52:58.465Z,74.6608
2023-05-14T11:53:59.553Z,72.2889
2023-05-14T11:55:00.629Z,74.9180
2023-05-14T11:56:01.729Z,74.2695
2023-05-14T11:57:03.002Z,74.5263
2023-05-14T11:58:04.113Z,74.7563
2023-05-14T11:59:05.153Z,74.6588
2023-05-14T12:00:06.310Z,74.4461
2023-05-14T12:01:07.393Z,76.4841
2023-05-14T12:02:08.506Z,77.1797
2023-05-14T12:03:09.697Z,76.1120
2023-05-14T12:04:10.995Z,73.6982
2023-05-14T12:05:12.157Z,74.9189
2023-05-14T12:06:13.283Z,73.2426
2023-05-14T12:07:14.359Z,72.8003
2023-05-14T12:08:15.428Z,70.8220
2023-05-14T12:09:16.783Z,71.1064
2023-05-14T12:10:17.888Z,75.3720
2023-05-14T12:11:19.006Z,71.5881
2023-05-14T12:12:20.098Z,70.6466
2023-05-14T12:13:21.146Z,70.2357
2023-05-14T12:14:22.312Z,71.3096
2023-05-14T12:15:23.409Z,73.9146
2023-05-14T12:16:24.814Z,70.2321
2023-05-14T12:17:26.905Z,70.7780
2023-05-14T12:18:29.061Z,72.4958
2023-05-14T12:19:31.179Z,71.7210
2023-05-14T12:20:32.361Z,73.6418
2023-05-14T12:21:33.459Z,69.6382
2023-05-14T12:22:36.868Z,70.5453
2023-05-14T12:23:34.866Z,70.4379
2023-05-14T12:24:36.214Z,67.8650
2023-05-14T12:25:37.301Z,67.0598
2023-05-14T12:26:38.624Z,68.2016
2023-05-14T12:27:39.740Z,69.1200
2023-05-14T12:28:40.849Z,71.4727
2023-05-14T12:29:41.935Z,68.9403